createdAt,value
2023-04-09T00:01:02.958Z,6.61
2023-04-09T00:03:05.864Z,6.68
2023-04-09T00:05:09.159Z,6.63
2023-04-09T00:07:11.932Z,6.68
2023-04-09T00:09:14.740Z,6.67
2023-04-09T00:11:17.537Z,6.67
2023-04-09T00:13:31.934Z,6.63
2023-04-09T00:15:41.724Z,6.75
2023-04-09T00:17:44.451Z,6.69
2023-04-09T00:19:47.180Z,6.69
2023-04-09T00:21:49.850Z,6.62
2023-04-09T00:23:52.527Z,6.65
2023-04-09T00:25:55.209Z,6.71
2023-04-09T00:27:58.154Z,6.65
2023-04-09T00:30:02.235Z,6.65
2023-04-09T00:32:05.032Z,6.60
2023-04-09T00:34:07.739Z,6.63
2023-04-09T00:36:10.450Z,6.66
2023-04-09T00:38:13.214Z,6.69
2023-04-09T00:40:16.261Z,6.64
2023-04-09T00:42:18.969Z,6.55
2023-04-09T00:44:21.654Z,6.57
2023-04-09T00:46:26.037Z,6.53
2023-04-09T00:48:28.937Z,6.54
2023-04-09T00:50:31.666Z,6.77
2023-04-09T00:52:34.860Z,6.60
2023-04-09T00:54:37.875Z,6.62
2023-04-09T00:56:41.404Z,6.58
2023-04-09T00:58:44.250Z,6.66
2023-04-09T01:00:47.008Z,6.66
2023-04-09T01:02:52.885Z,6.67
2023-04-09T01:04:55.993Z,6.62
2023-04-09T01:07:04.893Z,6.61
2023-04-09T01:09:15.734Z,6.60
2023-04-09T01:11:32.496Z,6.57
2023-04-09T01:13:43.591Z,6.57
2023-04-09T01:15:50.460Z,6.54
2023-04-09T01:18:06.303Z,6.61
2023-04-09T01:20:13.090Z,6.55
2023-04-09T01:22:25.696Z,6.56
2023-04-09T01:24:42.716Z,6.67
2023-04-09T01:26:58.326Z,6.69
2023-04-09T01:29:06.450Z,6.59
2023-04-09T01:31:13.981Z,6.44
2023-04-09T01:33:18.902Z,6.47
2023-04-09T01:35:22.527Z,6.61
2023-04-09T01:37:26.464Z,6.59
2023-04-09T01:39:30.010Z,6.42
2023-04-09T01:41:35.361Z,6.50
2023-04-09T01:43:39.168Z,6.46
2023-04-09T01:45:45.325Z,6.53
2023-04-09T01:47:48.692Z,6.51
2023-04-09T01:49:52.666Z,6.50
2023-04-09T01:51:55.608Z,6.51
2023-04-09T01:53:58.565Z,6.53
2023-04-09T01:56:02.100Z,6.58
2023-04-09T01:58:04.883Z,6.48
2023-04-09T02:00:09.344Z,6.51
2023-04-09T02:02:19.863Z,6.55
2023-04-09T02:04:25.814Z,6.49
2023-04-09T02:06:35.828Z,6.57
2023-04-09T02:08:38.885Z,6.68
2023-04-09T02:10:41.899Z,6.45
2023-04-09T02:12:49.990Z,6.47
2023-04-09T02:14:54.316Z,6.40
2023-04-09T02:16:57.813Z,6.54
2023-04-09T02:19:02.135Z,6.61
2023-04-09T02:21:05.866Z,6.60
2023-04-09T02:23:08.525Z,6.52
2023-04-09T02:25:11.245Z,6.54
2023-04-09T02:27:13.916Z,6.59
2023-04-09T02:29:16.685Z,6.43
2023-04-09T02:31:19.493Z,6.52
2023-04-09T02:33:22.476Z,6.43
2023-04-09T02:35:26.679Z,6.30
2023-04-09T02:37:29.388Z,6.33
2023-04-09T02:39:32.021Z,6.44
2023-04-09T02:41:34.784Z,6.36
2023-04-09T02:43:37.957Z,6.46
2023-04-09T02:45:40.707Z,6.49
2023-04-09T02:47:43.426Z,6.45
2023-04-09T02:49:46.233Z,6.40
2023-04-09T02:51:50.351Z,6.52
2023-04-09T02:53:53.054Z,6.39
2023-04-09T02:55:55.763Z,6.37
2023-04-09T02:57:58.462Z,6.39
2023-04-09T03:00:01.159Z,6.26
2023-04-09T03:02:04.063Z,6.35
2023-04-09T03:04:06.924Z,6.39
2023-04-09T03:06:09.747Z,6.31
2023-04-09T03:08:13.969Z,6.35
2023-04-09T03:10:16.709Z,6.32
2023-04-09T03:12:19.464Z,6.46
2023-04-09T03:14:22.180Z,6.34
2023-04-09T03:16:25.992Z,6.31
2023-04-09T03:18:28.909Z,6.29
2023-04-09T03:20:31.639Z,6.22
2023-04-09T03:22:37.194Z,6.28
2023-04-09T03:24:41.288Z,6.22
2023-04-09T03:26:44.133Z,6.28
2023-04-09T03:28:46.904Z,6.25
2023-04-09T03:30:49.708Z,6.27
2023-04-09T03:32:52.490Z,6.25
2023-04-09T03:34:55.328Z,6.16
2023-04-09T03:36:58.954Z,6.21
2023-04-09T03:39:01.861Z,6.22
2023-04-09T03:41:06.071Z,6.27
2023-04-09T03:43:08.773Z,6.20
2023-04-09T03:45:12.057Z,6.29
2023-04-09T03:47:14.705Z,6.20
2023-04-09T03:49:17.386Z,6.15
2023-04-09T03:51:20.118Z,6.18
2023-04-09T03:53:22.795Z,6.16
2023-04-09T03:55:25.474Z,6.13
2023-04-09T03:57:29.503Z,6.13
2023-04-09T03:59:32.237Z,6.12
2023-04-09T04:01:35.124Z,6.10
2023-04-09T04:03:38.203Z,6.12
2023-04-09T04:05:41.182Z,5.97
2023-04-09T04:07:44.972Z,5.97
2023-04-09T04:09:47.663Z,5.91
2023-04-09T04:11:50.334Z,5.94
2023-04-09T04:13:55.800Z,5.94
2023-04-09T04:15:58.732Z,6.10
2023-04-09T04:18:01.471Z,6.18
2023-04-09T04:20:04.281Z,5.97
2023-04-09T04:22:06.981Z,5.89
2023-04-09T04:24:09.714Z,5.98
2023-04-09T04:26:12.572Z,5.95
2023-04-09T04:28:15.346Z,6.07
2023-04-09T04:30:19.570Z,5.99
2023-04-09T04:32:22.596Z,6.06
2023-04-09T04:34:25.384Z,5.93
2023-04-09T04:36:28.058Z,5.92
2023-04-09T04:38:30.747Z,5.94
2023-04-09T04:40:33.429Z,5.86
2023-04-09T04:42:36.161Z,5.91
2023-04-09T04:44:38.826Z,6.03
2023-04-09T04:46:42.911Z,6.07
2023-04-09T04:48:45.576Z,5.96
2023-04-09T04:50:48.317Z,6.00
2023-04-09T04:52:51.052Z,6.07
2023-04-09T04:54:53.836Z,6.03
2023-04-09T04:56:56.941Z,6.07
2023-04-09T04:58:59.617Z,6.18
2023-04-09T05:01:02.305Z,6.11
2023-04-09T05:03:07.004Z,6.16
2023-04-09T05:05:10.017Z,6.17
2023-04-09T05:07:12.754Z,6.16
2023-04-09T05:09:15.658Z,6.11
2023-04-09T05:11:18.316Z,6.29
2023-04-09T05:13:20.993Z,6.22
2023-04-09T05:15:23.696Z,6.21
2023-04-09T05:17:26.414Z,6.11
2023-04-09T05:19:30.543Z,6.11
2023-04-09T05:21:33.256Z,6.10
2023-04-09T05:23:35.914Z,6.08
2023-04-09T05:25:38.635Z,6.07
2023-04-09T05:27:41.469Z,6.10
2023-04-09T05:29:44.148Z,6.11
2023-04-09T05:31:46.834Z,6.16
2023-04-09T05:33:49.614Z,6.20
2023-04-09T05:35:53.700Z,6.31
2023-04-09T05:37:56.946Z,6.41
2023-04-09T05:39:59.666Z,6.37
2023-04-09T05:42:02.452Z,6.48
2023-04-09T05:44:05.764Z,6.57
2023-04-09T05:46:08.430Z,6.60
2023-04-09T05:48:11.246Z,6.63
2023-04-09T05:50:14.047Z,6.71
2023-04-09T05:52:18.065Z,6.89
2023-04-09T05:54:20.746Z,6.52
2023-04-09T05:56:23.634Z,6.58
2023-04-09T05:58:27.363Z,6.83
2023-04-09T06:00:30.156Z,6.98
2023-04-09T06:02:32.951Z,7.14
2023-04-09T06:04:35.834Z,7.08
2023-04-09T06:06:39.614Z,7.37
2023-04-09T06:08:44.934Z,7.39
2023-04-09T06:10:47.616Z,7.04
2023-04-09T06:12:50.495Z,6.96
2023-04-09T06:14:53.340Z,6.77
2023-04-09T06:16:56.213Z,7.07
2023-04-09T06:18:58.914Z,7.00
2023-04-09T06:21:05.240Z,7.24
2023-04-09T06:23:08.054Z,7.40
2023-04-09T06:25:12.246Z,7.26
2023-04-09T06:27:15.006Z,7.47
2023-04-09T06:29:17.911Z,7.55
2023-04-09T06:31:20.599Z,7.57
2023-04-09T06:33:23.616Z,7.45
2023-04-09T06:35:26.352Z,7.34
2023-04-09T06:37:29.010Z,7.50
2023-04-09T06:39:32.956Z,7.39
2023-04-09T06:41:37.118Z,7.76
2023-04-09T06:43:39.844Z,7.94
2023-04-09T06:45:42.647Z,8.65
2023-04-09T06:47:45.427Z,10.06
2023-04-09T06:49:48.079Z,9.18
2023-04-09T06:51:51.989Z,10.02
2023-04-09T06:53:55.089Z,9.17
2023-04-09T06:55:58.067Z,9.02
2023-04-09T06:58:02.777Z,9.72
2023-04-09T07:00:06.211Z,9.24
2023-04-09T07:02:09.301Z,9.47
2023-04-09T07:04:12.202Z,9.16
2023-04-09T07:06:14.893Z,10.14
2023-04-09T07:08:17.602Z,9.90
2023-04-09T07:10:20.330Z,10.30
2023-04-09T07:12:29.314Z,10.66
2023-04-09T07:14:33.365Z,10.90
2023-04-09T07:16:36.154Z,11.17
2023-04-09T07:18:38.944Z,12.17
2023-04-09T07:20:41.553Z,12.08
2023-04-09T07:22:44.300Z,11.81
2023-04-09T07:24:47.112Z,12.61
2023-04-09T07:26:52.050Z,11.94
2023-04-09T07:28:56.096Z,10.80
2023-04-09T07:31:02.856Z,11.07
2023-04-09T07:33:05.610Z,12.11
2023-04-09T07:35:11.278Z,12.44
2023-04-09T07:37:14.089Z,11.25
2023-04-09T07:39:17.370Z,11.19
2023-04-09T07:41:20.891Z,13.66
2023-04-09T07:43:23.577Z,13.60
2023-04-09T07:45:26.489Z,13.71
2023-04-09T07:47:31.300Z,13.02
2023-04-09T07:49:34.176Z,12.94
2023-04-09T07:51:36.837Z,13.60
2023-04-09T07:53:39.576Z,13.40
2023-04-09T07:55:42.448Z,13.84
2023-04-09T07:57:45.352Z,13.94
2023-04-09T07:59:48.086Z,13.26
2023-04-09T08:01:51.056Z,13.37
2023-04-09T08:03:55.316Z,12.99
2023-04-09T08:05:58.087Z,13.96
2023-04-09T08:08:00.785Z,14.10
2023-04-09T08:10:03.536Z,14.09
2023-04-09T08:12:06.430Z,14.66
2023-04-09T08:14:12.828Z,14.78
2023-04-09T08:16:15.522Z,15.22
2023-04-09T08:18:18.210Z,15.02
2023-04-09T08:20:22.404Z,13.30
2023-04-09T08:22:25.075Z,14.72
2023-04-09T08:24:28.202Z,14.93
2023-04-09T08:26:30.970Z,15.09
2023-04-09T08:28:33.672Z,14.77
2023-04-09T08:30:36.341Z,14.05
2023-04-09T08:32:39.048Z,14.15
2023-04-09T08:34:41.798Z,14.17
2023-04-09T08:36:49.767Z,14.80
2023-04-09T08:38:53.267Z,13.85
2023-04-09T08:40:56.069Z,13.28
2023-04-09T08:43:00.609Z,14.86
2023-04-09T08:45:05.180Z,13.80
2023-04-09T08:47:10.169Z,13.75
2023-04-09T08:49:13.323Z,14.11
2023-04-09T08:51:16.418Z,14.49
2023-04-09T08:53:22.271Z,14.46
2023-04-09T08:55:25.294Z,15.18
2023-04-09T08:57:28.158Z,14.55
2023-04-09T08:59:31.233Z,15.49
2023-04-09T09:01:34.063Z,14.93
2023-04-09T09:03:55.159Z,16.31
2023-04-09T09:05:58.921Z,15.23
2023-04-09T09:08:02.264Z,15.15
2023-04-09T09:10:07.404Z,15.34
2023-04-09T09:12:10.152Z,16.01
2023-04-09T09:14:14.079Z,16.23
2023-04-09T09:16:17.943Z,13.63
2023-04-09T09:18:20.837Z,15.34
2023-04-09T09:20:24.375Z,15.22
2023-04-09T09:22:27.238Z,15.32
2023-04-09T09:24:30.367Z,15.93
2023-04-09T09:26:39.582Z,15.02
2023-04-09T09:28:42.636Z,14.66
2023-04-09T09:30:49.184Z,16.11
2023-04-09T09:32:55.670Z,15.34
2023-04-09T09:35:06.606Z,14.60
2023-04-09T09:37:27.924Z,16.48
2023-04-09T09:39:44.294Z,14.36
2023-04-09T09:41:48.854Z,15.97
2023-04-09T09:43:51.950Z,12.78
2023-04-09T09:45:54.969Z,14.50
2023-04-09T09:47:57.715Z,14.56
2023-04-09T09:50:00.565Z,15.96
2023-04-09T09:52:06.421Z,15.11
2023-04-09T09:54:10.722Z,15.44
2023-04-09T09:56:17.911Z,16.46
2023-04-09T09:58:27.430Z,17.08
2023-04-09T10:00:33.274Z,14.70
2023-04-09T10:02:45.135Z,15.74
2023-04-09T10:04:50.611Z,16.24
2023-04-09T10:06:53.977Z,16.36
2023-04-09T10:08:59.213Z,17.04
2023-04-09T10:11:02.364Z,16.51
2023-04-09T10:13:08.193Z,15.89
2023-04-09T10:15:12.990Z,14.37
2023-04-09T10:17:16.181Z,16.15
2023-04-09T10:19:19.467Z,15.06
2023-04-09T10:21:32.590Z,13.71
2023-04-09T10:23:39.559Z,13.18
2023-04-09T10:25:42.727Z,11.91
2023-04-09T10:27:48.312Z,12.06
2023-04-09T10:29:52.829Z,13.46
2023-04-09T10:32:05.630Z,14.20
2023-04-09T10:34:10.762Z,13.39
2023-04-09T10:36:14.204Z,13.02
2023-04-09T10:38:16.999Z,12.91
2023-04-09T10:40:21.649Z,13.78
2023-04-09T10:42:30.246Z,13.49
2023-04-09T10:44:32.986Z,13.28
2023-04-09T10:46:37.379Z,13.06
2023-04-09T10:48:41.438Z,12.19
2023-04-09T10:50:45.329Z,11.14
2023-04-09T10:52:52.972Z,11.84
2023-04-09T10:54:55.914Z,11.93
2023-04-09T10:57:19.200Z,11.66
2023-04-09T10:59:21.842Z,11.29
2023-04-09T11:01:26.524Z,11.38
2023-04-09T11:03:30.623Z,12.51
2023-04-09T11:05:38.125Z,12.54
2023-04-09T11:07:46.148Z,12.12
2023-04-09T11:09:48.829Z,11.51
2023-04-09T11:11:53.863Z,11.63
2023-04-09T11:14:01.489Z,11.55
2023-04-09T11:16:07.003Z,11.55
2023-04-09T11:18:10.911Z,12.71
2023-04-09T11:20:14.571Z,12.31
2023-04-09T11:22:18.742Z,12.33
2023-04-09T11:24:21.503Z,11.91
2023-04-09T11:26:35.911Z,11.36
2023-04-09T11:28:42.291Z,11.27
2023-04-09T11:30:46.800Z,11.39
2023-04-09T11:32:50.131Z,11.56
2023-04-09T11:34:53.739Z,12.01
2023-04-09T11:36:58.927Z,12.64
2023-04-09T11:39:04.017Z,12.25
2023-04-09T11:41:06.820Z,11.94
2023-04-09T11:43:09.610Z,11.81
2023-04-09T11:45:13.112Z,11.67
2023-04-09T11:47:16.913Z,11.11
2023-04-09T11:49:19.647Z,11.06
2023-04-09T11:51:22.455Z,11.45
2023-04-09T11:53:31.776Z,11.86
2023-04-09T11:55:35.987Z,11.07
2023-04-09T11:57:41.644Z,10.96
2023-04-09T11:59:44.666Z,11.12
2023-04-09T12:01:51.191Z,11.30
2023-04-09T12:03:54.105Z,11.54
2023-04-09T12:05:56.970Z,12.10
2023-04-09T12:08:01.698Z,12.37
2023-04-09T12:10:06.194Z,12.62
2023-04-09T12:12:11.390Z,12.61
2023-04-09T12:14:16.144Z,13.03
2023-04-09T12:16:21.105Z,13.02
2023-04-09T12:18:24.370Z,13.07
2023-04-09T12:20:31.946Z,13.29
2023-04-09T12:22:36.129Z,12.81
2023-04-09T12:24:38.763Z,12.64
2023-04-09T12:26:41.431Z,12.53
2023-04-09T12:28:45.492Z,12.60
2023-04-09T12:30:49.120Z,13.41
2023-04-09T12:32:53.019Z,13.06
2023-04-09T12:34:55.817Z,12.17
2023-04-09T12:36:58.562Z,13.24
2023-04-09T12:39:01.563Z,13.60
2023-04-09T12:41:04.344Z,13.36
2023-04-09T12:43:07.099Z,12.60
2023-04-09T12:45:13.957Z,12.57
2023-04-09T12:47:16.658Z,12.32
2023-04-09T12:49:19.908Z,12.42
2023-04-09T12:51:22.973Z,12.61
2023-04-09T12:53:25.720Z,12.44
2023-04-09T12:55:28.905Z,12.37
2023-04-09T12:57:31.896Z,12.06
2023-04-09T12:59:34.636Z,12.78
2023-04-09T13:01:40.184Z,12.69
2023-04-09T13:03:44.263Z,12.44
2023-04-09T13:05:47.294Z,12.26
2023-04-09T13:07:50.009Z,12.37
2023-04-09T13:09:52.919Z,12.40
2023-04-09T13:11:56.008Z,12.47
2023-04-09T13:13:58.763Z,12.24
2023-04-09T13:16:02.143Z,12.35
2023-04-09T13:18:06.633Z,12.43
2023-04-09T13:20:10.374Z,13.03
2023-04-09T13:22:13.109Z,13.03
2023-04-09T13:24:15.835Z,13.52
2023-04-09T13:26:18.528Z,13.51
2023-04-09T13:28:21.336Z,13.57
2023-04-09T13:30:24.264Z,13.42
2023-04-09T13:32:27.071Z,13.90
2023-04-09T13:34:31.213Z,13.75
2023-04-09T13:36:33.991Z,13.48
2023-04-09T13:38:36.721Z,13.16
2023-04-09T13:40:39.403Z,13.12
2023-04-09T13:42:42.068Z,13.53
2023-04-09T13:44:45.563Z,13.83
2023-04-09T13:46:48.294Z,13.71
2023-04-09T13:48:51.133Z,13.59
2023-04-09T13:50:55.380Z,13.73
2023-04-09T13:52:58.173Z,13.89
2023-04-09T13:55:01.236Z,13.91
2023-04-09T13:57:04.566Z,14.43
2023-04-09T13:59:07.308Z,14.12
2023-04-09T14:01:10.418Z,13.96
2023-04-09T14:03:14.229Z,14.07
2023-04-09T14:05:17.097Z,13.84
2023-04-09T14:07:21.216Z,14.00
2023-04-09T14:09:24.274Z,14.30
2023-04-09T14:11:27.019Z,13.95
2023-04-09T14:13:30.408Z,13.78
2023-04-09T14:15:33.379Z,14.38
2023-04-09T14:17:36.264Z,14.19
2023-04-09T14:19:39.170Z,13.94
2023-04-09T14:21:42.059Z,14.17
2023-04-09T14:23:46.334Z,13.73
2023-04-09T14:25:49.000Z,13.85
2023-04-09T14:27:52.119Z,13.81
2023-04-09T14:29:54.797Z,14.20
2023-04-09T14:31:57.692Z,13.90
2023-04-09T14:34:00.386Z,13.74
2023-04-09T14:36:03.101Z,13.59
2023-04-09T14:38:05.847Z,13.62
2023-04-09T14:40:10.683Z,13.59
2023-04-09T14:42:14.296Z,13.40
2023-04-09T14:44:17.034Z,13.58
2023-04-09T14:46:20.316Z,13.48
2023-04-09T14:48:23.021Z,13.52
2023-04-09T14:50:25.786Z,13.56
2023-04-09T14:52:30.318Z,13.43
2023-04-09T14:54:33.805Z,13.65
2023-04-09T14:56:37.991Z,13.66
2023-04-09T14:58:40.651Z,13.77
2023-04-09T15:00:44.864Z,13.76
2023-04-09T15:02:48.195Z,13.70
2023-04-09T15:04:51.187Z,13.90
2023-04-09T15:06:53.888Z,13.40
2023-04-09T15:08:56.584Z,13.40
2023-04-09T15:10:59.369Z,13.36
2023-04-09T15:13:03.405Z,13.39
2023-04-09T15:15:08.085Z,13.39
2023-04-09T15:17:10.810Z,13.67
2023-04-09T15:19:13.464Z,13.52
2023-04-09T15:21:16.092Z,13.74
2023-04-09T15:23:18.788Z,13.66
2023-04-09T15:25:21.556Z,13.72
2023-04-09T15:27:24.281Z,14.03
2023-04-09T15:29:28.422Z,13.84
2023-04-09T15:31:31.419Z,13.68
2023-04-09T15:33:34.179Z,13.53
2023-04-09T15:35:37.743Z,13.54
2023-04-09T15:37:40.546Z,13.05
2023-04-09T15:39:43.606Z,12.71
2023-04-09T15:41:46.537Z,12.63
2023-04-09T15:43:49.187Z,12.60
2023-04-09T15:45:53.307Z,12.71
2023-04-09T15:47:56.071Z,12.86
2023-04-09T15:49:59.336Z,12.89
2023-04-09T15:52:02.003Z,12.98
2023-04-09T15:54:04.946Z,13.10
2023-04-09T15:56:09.786Z,13.28
2023-04-09T15:58:13.669Z,13.26
2023-04-09T16:00:16.521Z,13.18
2023-04-09T16:02:20.775Z,13.22
2023-04-09T16:04:23.530Z,12.90
2023-04-09T16:06:26.297Z,12.89
2023-04-09T16:08:28.962Z,13.01
2023-04-09T16:10:31.862Z,12.85
2023-04-09T16:12:34.539Z,12.86
2023-04-09T16:14:37.852Z,12.74
2023-04-09T16:16:40.785Z,12.78
2023-04-09T16:18:44.837Z,12.84
2023-04-09T16:20:47.595Z,12.94
2023-04-09T16:22:50.400Z,12.80
2023-04-09T16:24:53.142Z,12.77
2023-04-09T16:26:56.410Z,12.83
2023-04-09T16:29:02.952Z,12.87
2023-04-09T16:31:05.507Z,12.77
2023-04-09T16:33:08.741Z,12.72
2023-04-09T16:35:12.832Z,12.71
2023-04-09T16:37:15.665Z,12.79
2023-04-09T16:39:19.499Z,12.61
2023-04-09T16:41:22.180Z,12.48
2023-04-09T16:43:26.053Z,12.52
2023-04-09T16:45:30.002Z,12.60
2023-04-09T16:47:32.816Z,12.52
2023-04-09T16:49:35.498Z,12.76
2023-04-09T16:51:39.626Z,12.63
2023-04-09T16:53:42.305Z,12.62
2023-04-09T16:55:45.061Z,12.56
2023-04-09T16:57:47.707Z,12.49
2023-04-09T16:59:50.784Z,12.37
2023-04-09T17:01:53.654Z,12.33
2023-04-09T17:03:57.266Z,12.30
2023-04-09T17:06:00.059Z,12.30
2023-04-09T17:08:04.148Z,12.22
2023-04-09T17:10:08.241Z,12.24
2023-04-09T17:12:11.218Z,12.24
2023-04-09T17:14:14.045Z,12.20
2023-04-09T17:16:18.112Z,12.26
2023-04-09T17:18:20.856Z,12.20
2023-04-09T17:20:24.894Z,12.09
2023-04-09T17:22:27.688Z,12.05
2023-04-09T17:24:31.827Z,12.06
2023-04-09T17:26:34.688Z,12.04
2023-04-09T17:28:37.391Z,11.97
2023-04-09T17:30:40.099Z,11.88
2023-04-09T17:32:44.033Z,11.68
2023-04-09T17:34:48.127Z,11.74
2023-04-09T17:36:56.439Z,11.58
2023-04-09T17:38:59.166Z,11.53
2023-04-09T17:41:04.293Z,11.58
2023-04-09T17:43:08.046Z,11.62
2023-04-09T17:45:11.844Z,11.48
2023-04-09T17:47:14.654Z,11.46
2023-04-09T17:49:17.345Z,11.34
2023-04-09T17:51:20.829Z,11.34
2023-04-09T17:53:23.620Z,11.31
2023-04-09T17:55:26.326Z,11.23
2023-04-09T17:57:30.310Z,11.09
2023-04-09T17:59:34.352Z,11.18
2023-04-09T18:01:37.225Z,11.17
2023-04-09T18:03:40.705Z,11.04
2023-04-09T18:05:43.664Z,10.91
2023-04-09T18:07:46.494Z,10.95
2023-04-09T18:09:49.565Z,10.93
2023-04-09T18:11:56.235Z,10.86
2023-04-09T18:14:00.378Z,10.90
2023-04-09T18:16:03.161Z,10.78
2023-04-09T18:18:05.923Z,10.72
2023-04-09T18:20:09.278Z,10.70
2023-04-09T18:22:12.025Z,10.66
2023-04-09T18:24:14.716Z,10.68
2023-04-09T18:26:17.465Z,10.65
2023-04-09T18:28:20.151Z,10.68
2023-04-09T18:30:24.688Z,10.55
2023-04-09T18:32:27.422Z,10.44
2023-04-09T18:34:30.091Z,10.37
2023-04-09T18:36:32.842Z,10.36
2023-04-09T18:38:36.915Z,10.32
2023-04-09T18:40:42.292Z,10.20
2023-04-09T18:42:45.307Z,10.25
2023-04-09T18:44:47.954Z,10.14
2023-04-09T18:46:52.200Z,10.21
2023-04-09T18:48:55.272Z,10.13
2023-04-09T18:50:59.032Z,10.07
2023-04-09T18:53:03.377Z,10.02
2023-04-09T18:55:06.904Z,9.96
2023-04-09T18:57:09.538Z,9.96
2023-04-09T18:59:12.298Z,9.96
2023-04-09T19:01:15.383Z,9.84
2023-04-09T19:03:20.092Z,9.84
2023-04-09T19:05:23.014Z,9.72
2023-04-09T19:07:25.839Z,9.74
2023-04-09T19:09:28.777Z,9.62
2023-04-09T19:11:31.619Z,9.58
2023-04-09T19:13:34.328Z,9.58
2023-04-09T19:15:38.391Z,9.51
2023-04-09T19:17:41.482Z,9.47
2023-04-09T19:19:45.507Z,9.35
2023-04-09T19:21:48.212Z,9.38
2023-04-09T19:23:50.959Z,9.38
2023-04-09T19:25:55.217Z,9.35
2023-04-09T19:27:57.986Z,9.23
2023-04-09T19:30:01.151Z,9.21
2023-04-09T19:32:03.960Z,9.21
2023-04-09T19:34:07.054Z,9.02
2023-04-09T19:36:12.927Z,9.02
2023-04-09T19:38:16.448Z,9.10
2023-04-09T19:40:19.324Z,9.06
2023-04-09T19:42:22.309Z,8.95
2023-04-09T19:44:25.072Z,8.93
2023-04-09T19:46:27.778Z,8.96
2023-04-09T19:48:30.640Z,8.92
2023-04-09T19:50:35.669Z,8.83
2023-04-09T19:52:41.245Z,8.81
2023-04-09T19:54:44.009Z,8.87
2023-04-09T19:56:46.713Z,8.72
2023-04-09T19:58:49.360Z,8.70
2023-04-09T20:00:52.310Z,8.73
2023-04-09T20:02:55.677Z,8.74
2023-04-09T20:04:58.591Z,8.66
2023-04-09T20:07:01.413Z,8.70
2023-04-09T20:09:05.707Z,8.60
2023-04-09T20:11:08.517Z,8.57
2023-04-09T20:13:11.324Z,8.67
2023-04-09T20:15:14.684Z,8.61
2023-04-09T20:17:19.792Z,8.68
2023-04-09T20:19:22.585Z,8.66
2023-04-09T20:21:25.320Z,8.58
2023-04-09T20:23:28.059Z,8.51
2023-04-09T20:25:35.051Z,8.58
2023-04-09T20:27:38.613Z,8.48
2023-04-09T20:29:41.304Z,8.45
2023-04-09T20:31:44.398Z,8.45
2023-04-09T20:33:47.216Z,8.46
2023-04-09T20:35:50.427Z,8.44
2023-04-09T20:37:54.851Z,8.42
2023-04-09T20:39:58.768Z,8.40
2023-04-09T20:42:02.895Z,8.33
2023-04-09T20:44:05.949Z,8.30
2023-04-09T20:46:08.756Z,8.19
2023-04-09T20:48:11.956Z,8.17
2023-04-09T20:50:14.805Z,8.19
2023-04-09T20:52:17.737Z,8.12
2023-04-09T20:54:22.740Z,8.08
2023-04-09T20:56:25.668Z,8.20
2023-04-09T20:58:29.801Z,8.18
2023-04-09T21:00:32.455Z,8.14
2023-04-09T21:02:35.654Z,7.97
2023-04-09T21:04:39.037Z,8.01
2023-04-09T21:06:41.858Z,7.94
2023-04-09T21:08:44.715Z,7.87
2023-04-09T21:10:47.549Z,7.86
2023-04-09T21:12:50.320Z,7.77
2023-04-09T21:14:54.590Z,7.80
2023-04-09T21:16:57.462Z,7.78
2023-04-09T21:19:06.813Z,7.66
2023-04-09T21:21:09.777Z,7.67
2023-04-09T21:23:12.779Z,7.67
2023-04-09T21:25:15.810Z,7.62
2023-04-09T21:27:18.644Z,7.72
2023-04-09T21:29:21.636Z,7.63
2023-04-09T21:31:25.995Z,7.67
2023-04-09T21:33:30.008Z,7.56
2023-04-09T21:35:33.649Z,7.58
2023-04-09T21:37:37.513Z,7.71
2023-04-09T21:39:40.243Z,7.63
2023-04-09T21:41:42.992Z,7.62
2023-04-09T21:43:45.862Z,7.53
2023-04-09T21:45:48.702Z,7.49
2023-04-09T21:47:52.907Z,7.62
2023-04-09T21:49:56.534Z,7.55
2023-04-09T21:52:00.597Z,7.49
2023-04-09T21:54:04.993Z,7.42
2023-04-09T21:56:08.550Z,7.50
2023-04-09T21:58:11.894Z,7.39
2023-04-09T22:00:16.375Z,7.43
2023-04-09T22:02:19.589Z,7.26
2023-04-09T22:04:23.926Z,7.26
2023-04-09T22:06:27.080Z,7.32
2023-04-09T22:08:30.454Z,7.23
2023-04-09T22:10:33.234Z,7.15
2023-04-09T22:12:37.382Z,7.20
2023-04-09T22:14:41.790Z,7.16
2023-04-09T22:16:45.050Z,7.25
2023-04-09T22:18:48.019Z,7.09
2023-04-09T22:20:52.351Z,7.15
2023-04-09T22:22:55.264Z,7.07
2023-04-09T22:24:58.015Z,7.03
2023-04-09T22:27:01.460Z,7.01
2023-04-09T22:29:06.756Z,6.95
2023-04-09T22:31:09.765Z,6.97
2023-04-09T22:33:12.494Z,6.88
2023-04-09T22:35:18.083Z,6.76
2023-04-09T22:37:22.088Z,6.75
2023-04-09T22:39:24.962Z,6.78
2023-04-09T22:41:27.745Z,6.93
2023-04-09T22:43:30.628Z,6.90
2023-04-09T22:45:33.311Z,6.86
2023-04-09T22:47:36.110Z,6.86
2023-04-09T22:49:38.906Z,6.77
2023-04-09T22:51:42.602Z,6.63
2023-04-09T22:53:47.255Z,6.62
2023-04-09T22:55:51.728Z,6.49
2023-04-09T22:57:54.990Z,6.41
2023-04-09T22:59:57.839Z,6.49
2023-04-09T23:02:00.794Z,6.25
2023-04-09T23:04:03.647Z,6.28
2023-04-09T23:06:06.937Z,6.19
2023-04-09T23:08:09.975Z,6.18
2023-04-09T23:10:16.201Z,6.25
2023-04-09T23:12:19.004Z,6.23
2023-04-09T23:14:21.807Z,6.23
2023-04-09T23:16:24.635Z,6.25
2023-04-09T23:18:27.380Z,6.31
2023-04-09T23:20:30.410Z,6.25
2023-04-09T23:22:33.163Z,6.18
2023-04-09T23:24:35.914Z,6.21
2023-04-09T23:26:39.909Z,6.16
2023-04-09T23:28:42.720Z,6.26
2023-04-09T23:30:45.502Z,6.26
2023-04-09T23:32:48.959Z,6.30
2023-04-09T23:34:52.105Z,6.19
2023-04-09T23:36:54.906Z,6.25
2023-04-09T23:38:57.603Z,6.33
2023-04-09T23:41:00.283Z,6.33
2023-04-09T23:43:04.548Z,6.37
2023-04-09T23:45:08.365Z,6.32
2023-04-09T23:47:12.020Z,6.39
2023-04-09T23:49:16.135Z,6.40
2023-04-09T23:51:19.271Z,6.39
2023-04-09T23:53:22.033Z,6.34
2023-04-09T23:55:24.822Z,6.34
2023-04-09T23:57:27.736Z,6.23
2023-04-09T23:59:35.364Z,6.39
